Página principal
METAR-TAF:

METAR-TAF

Aeroportos :

Aeroporto de Estocolmo-Arlanda

Estocolmo-Arlanda, Suécia

latitude: 59-39N, longitude: 017-57E, altura: 38 m

Observação actual do tempo

O boletim foi feito há 34 minutos, às 22:20 UTC
Vento 9 kt de este
Temperatura 6°C
Humidade 93%
Pressão 1028 hPa
Visibilidade: 8000 m
Encobertoa uma altura de 700 ft

METAR: ESSA 202220Z 10009KT 8000 OVC007 06/05 Q1028 R01L/19//95 R08/19//95 R01R/19//95 NOSIG

Hora: 23:54 (22:54 UTC)

Previsão

O boletim foi feito há 2 horas e 6 minutos, às 20:48 UTC
Previsão válida de 20 às 20 UTC a 21 às 18 UTC
Vento 8 kt de este
Visibilidade: 7000 m
Nuvens fragmentadasa uma altura de 1500 ft
Temporariamente
de 20 às 20 UTC a 21 às 06 UTC
Nuvens fragmentadasa uma altura de 600 ft
Probabilidade 40%
de 21 às 06 UTC a 21 às 18 UTC
Nuvens fragmentadasa uma altura de 1000 ft

TAF: ESSA 202048Z 2020/2118 10008KT 7000 BKN015 TEMPO 2020/2106 BKN006 PROB40 2106/2118 BKN010

Observações e previsões do tempo de mais de 4000 aeroportos (mensagens METAR e TAF).

As estações disponíveis são os pontos amarelos e vermelhos sobre o mapa.

Mova o rato sobre o mapa para ver o nome da estação.

Depois clique no ponto para visualizar as observações e previsões meteorológicas.

Para alterar o mapa : clique nos botões verdes com uma cruz preta para aumentar o zoom; no botão verde com uma pitada de zoom; ou nas setas verdes para mapas adjacentes.


METAR-TAF: